sensor_id;sensor_type;location;lat;lon;timestamp;temperature;humidity
37158;DHT22;23050;51.776;22.638;2023-08-06T00:00:47;19.70;99.90
37158;DHT22;23050;51.776;22.638;2023-08-06T00:03:13;19.70;99.90
37158;DHT22;23050;51.776;22.638;2023-08-06T00:05:41;19.60;99.90
37158;DHT22;23050;51.776;22.638;2023-08-06T00:08:06;19.60;99.90
37158;DHT22;23050;51.776;22.638;2023-08-06T00:10:32;19.50;99.90
37158;DHT22;23050;51.776;22.638;2023-08-06T00:12:57;19.50;99.90
37158;DHT22;23050;51.776;22.638;2023-08-06T00:15:23;19.50;99.90
37158;DHT22;23050;51.776;22.638;2023-08-06T00:17:48;19.50;99.90
37158;DHT22;23050;51.776;22.638;2023-08-06T00:20:13;19.50;99.90
37158;DHT22;23050;51.776;22.638;2023-08-06T00:22:39;19.50;99.90
37158;DHT22;23050;51.776;22.638;2023-08-06T00:25:05;19.40;99.90
37158;DHT22;23050;51.776;22.638;2023-08-06T00:27:30;19.50;99.90
37158;DHT22;23050;51.776;22.638;2023-08-06T00:29:56;19.50;99.90
37158;DHT22;23050;51.776;22.638;2023-08-06T00:32:21;19.50;99.90
37158;DHT22;23050;51.776;22.638;2023-08-06T00:34:47;19.50;99.90
37158;DHT22;23050;51.776;22.638;2023-08-06T00:37:15;19.50;99.90
37158;DHT22;23050;51.776;22.638;2023-08-06T00:39:41;19.60;99.90
37158;DHT22;23050;51.776;22.638;2023-08-06T00:42:06;19.60;99.90
37158;DHT22;23050;51.776;22.638;2023-08-06T00:44:32;19.50;99.90
37158;DHT22;23050;51.776;22.638;2023-08-06T00:46:57;19.50;99.90
37158;DHT22;23050;51.776;22.638;2023-08-06T00:49:23;19.50;99.90
37158;DHT22;23050;51.776;22.638;2023-08-06T00:51:48;19.50;99.90
37158;DHT22;23050;51.776;22.638;2023-08-06T00:54:15;19.50;99.90
37158;DHT22;23050;51.776;22.638;2023-08-06T00:56:40;19.60;99.90
37158;DHT22;23050;51.776;22.638;2023-08-06T00:59:07;19.60;99.90
37158;DHT22;23050;51.776;22.638;2023-08-06T01:01:33;19.60;99.90
37158;DHT22;23050;51.776;22.638;2023-08-06T01:03:58;19.60;99.90
37158;DHT22;23050;51.776;22.638;2023-08-06T01:06:30;19.80;99.90
37158;DHT22;23050;51.776;22.638;2023-08-06T01:09:01;19.80;99.90
37158;DHT22;23050;51.776;22.638;2023-08-06T01:11:38;19.80;99.90
37158;DHT22;23050;51.776;22.638;2023-08-06T01:14:15;19.80;99.90
37158;DHT22;23050;51.776;22.638;2023-08-06T01:16:41;19.90;99.90
37158;DHT22;23050;51.776;22.638;2023-08-06T01:19:15;19.80;99.90
37158;DHT22;23050;51.776;22.638;2023-08-06T01:21:41;19.80;99.90
37158;DHT22;23050;51.776;22.638;2023-08-06T01:24:06;19.80;99.90
37158;DHT22;23050;51.776;22.638;2023-08-06T01:26:43;19.80;99.90
37158;DHT22;23050;51.776;22.638;2023-08-06T01:29:17;19.80;99.90
37158;DHT22;23050;51.776;22.638;2023-08-06T01:31:44;19.80;99.90
37158;DHT22;23050;51.776;22.638;2023-08-06T01:34:13;19.80;99.90
37158;DHT22;23050;51.776;22.638;2023-08-06T01:36:42;19.70;99.90
37158;DHT22;23050;51.776;22.638;2023-08-06T01:39:07;19.70;99.90
37158;DHT22;23050;51.776;22.638;2023-08-06T01:41:33;19.70;99.90
37158;DHT22;23050;51.776;22.638;2023-08-06T01:43:58;19.70;99.90
37158;DHT22;23050;51.776;22.638;2023-08-06T01:46:24;19.70;99.90
37158;DHT22;23050;51.776;22.638;2023-08-06T01:48:49;19.80;99.90
37158;DHT22;23050;51.776;22.638;2023-08-06T01:51:15;19.80;99.90
37158;DHT22;23050;51.776;22.638;2023-08-06T01:53:40;19.80;99.90
37158;DHT22;23050;51.776;22.638;2023-08-06T01:56:06;19.80;99.90
37158;DHT22;23050;51.776;22.638;2023-08-06T01:58:31;19.80;99.90
37158;DHT22;23050;51.776;22.638;2023-08-06T02:00:57;19.80;99.90
37158;DHT22;23050;51.776;22.638;2023-08-06T02:03:22;19.80;99.90
37158;DHT22;23050;51.776;22.638;2023-08-06T02:05:48;19.80;99.90
37158;DHT22;23050;51.776;22.638;2023-08-06T02:08:13;19.80;99.90
37158;DHT22;23050;51.776;22.638;2023-08-06T02:10:39;19.70;99.90
37158;DHT22;23050;51.776;22.638;2023-08-06T02:13:04;19.70;99.90
37158;DHT22;23050;51.776;22.638;2023-08-06T02:15:30;19.70;99.90
37158;DHT22;23050;51.776;22.638;2023-08-06T02:17:55;19.60;99.90
37158;DHT22;23050;51.776;22.638;2023-08-06T02:20:21;19.60;99.90
37158;DHT22;23050;51.776;22.638;2023-08-06T02:22:46;19.70;99.90
37158;DHT22;23050;51.776;22.638;2023-08-06T02:25:12;19.70;99.90
37158;DHT22;23050;51.776;22.638;2023-08-06T02:27:37;19.70;99.90
37158;DHT22;23050;51.776;22.638;2023-08-06T02:30:04;19.70;99.90
37158;DHT22;23050;51.776;22.638;2023-08-06T02:32:29;19.70;99.90
37158;DHT22;23050;51.776;22.638;2023-08-06T02:34:56;19.60;99.90
37158;DHT22;23050;51.776;22.638;2023-08-06T02:37:22;19.60;99.90
37158;DHT22;23050;51.776;22.638;2023-08-06T02:39:47;19.60;99.90
37158;DHT22;23050;51.776;22.638;2023-08-06T02:42:13;19.60;99.90
37158;DHT22;23050;51.776;22.638;2023-08-06T02:44:38;19.70;99.90
37158;DHT22;23050;51.776;22.638;2023-08-06T02:47:04;19.60;99.90
37158;DHT22;23050;51.776;22.638;2023-08-06T02:49:29;19.60;99.90
37158;DHT22;23050;51.776;22.638;2023-08-06T02:51:55;19.60;99.90
37158;DHT22;23050;51.776;22.638;2023-08-06T02:54:20;19.60;99.90
37158;DHT22;23050;51.776;22.638;2023-08-06T02:56:46;19.60;99.90
37158;DHT22;23050;51.776;22.638;2023-08-06T02:59:12;19.60;99.90
37158;DHT22;23050;51.776;22.638;2023-08-06T03:01:38;19.70;99.90
37158;DHT22;23050;51.776;22.638;2023-08-06T03:04:03;19.70;99.90
37158;DHT22;23050;51.776;22.638;2023-08-06T03:06:29;19.60;99.90
37158;DHT22;23050;51.776;22.638;2023-08-06T03:08:54;19.60;99.90
37158;DHT22;23050;51.776;22.638;2023-08-06T03:11:20;19.60;99.90
37158;DHT22;23050;51.776;22.638;2023-08-06T03:13:46;19.60;99.90
37158;DHT22;23050;51.776;22.638;2023-08-06T03:16:12;19.60;99.90
37158;DHT22;23050;51.776;22.638;2023-08-06T03:18:37;19.70;99.90
37158;DHT22;23050;51.776;22.638;2023-08-06T03:21:03;19.60;99.90
37158;DHT22;23050;51.776;22.638;2023-08-06T03:23:28;19.70;99.90
37158;DHT22;23050;51.776;22.638;2023-08-06T03:25:54;19.70;99.90
37158;DHT22;23050;51.776;22.638;2023-08-06T03:28:19;19.70;99.90
37158;DHT22;23050;51.776;22.638;2023-08-06T03:30:45;19.80;99.90
37158;DHT22;23050;51.776;22.638;2023-08-06T03:33:10;19.80;99.90
37158;DHT22;23050;51.776;22.638;2023-08-06T03:35:36;19.80;99.90
37158;DHT22;23050;51.776;22.638;2023-08-06T03:38:01;19.80;99.90
37158;DHT22;23050;51.776;22.638;2023-08-06T03:40:27;19.80;99.90
37158;DHT22;23050;51.776;22.638;2023-08-06T03:42:52;19.90;99.90
37158;DHT22;23050;51.776;22.638;2023-08-06T03:45:18;19.90;99.90
37158;DHT22;23050;51.776;22.638;2023-08-06T03:47:43;19.90;99.90
37158;DHT22;23050;51.776;22.638;2023-08-06T03:50:09;20.00;99.90
37158;DHT22;23050;51.776;22.638;2023-08-06T03:52:35;20.00;99.90
37158;DHT22;23050;51.776;22.638;2023-08-06T03:55:00;20.00;99.90
37158;DHT22;23050;51.776;22.638;2023-08-06T03:57:26;20.10;99.90
37158;DHT22;23050;51.776;22.638;2023-08-06T03:59:51;20.10;99.90
37158;DHT22;23050;51.776;22.638;2023-08-06T04:02:16;20.20;99.90
37158;DHT22;23050;51.776;22.638;2023-08-06T04:04:42;20.20;99.90
37158;DHT22;23050;51.776;22.638;2023-08-06T04:07:07;20.30;99.90
37158;DHT22;23050;51.776;22.638;2023-08-06T04:09:33;20.30;99.90
37158;DHT22;23050;51.776;22.638;2023-08-06T04:11:58;20.40;99.90
37158;DHT22;23050;51.776;22.638;2023-08-06T04:14:27;20.50;99.90
37158;DHT22;23050;51.776;22.638;2023-08-06T04:16:52;20.60;99.90
37158;DHT22;23050;51.776;22.638;2023-08-06T04:19:18;20.60;99.90
37158;DHT22;23050;51.776;22.638;2023-08-06T04:21:43;20.60;99.90
37158;DHT22;23050;51.776;22.638;2023-08-06T04:24:09;20.70;99.90
37158;DHT22;23050;51.776;22.638;2023-08-06T04:26:34;20.70;99.90
37158;DHT22;23050;51.776;22.638;2023-08-06T04:29:00;20.80;99.90
37158;DHT22;23050;51.776;22.638;2023-08-06T04:31:25;20.90;99.90
37158;DHT22;23050;51.776;22.638;2023-08-06T04:33:50;20.90;99.90
37158;DHT22;23050;51.776;22.638;2023-08-06T04:36:16;21.00;99.90
37158;DHT22;23050;51.776;22.638;2023-08-06T04:38:42;21.00;99.90
37158;DHT22;23050;51.776;22.638;2023-08-06T04:41:10;21.10;99.90
37158;DHT22;23050;51.776;22.638;2023-08-06T04:43:36;21.20;99.90
37158;DHT22;23050;51.776;22.638;2023-08-06T04:46:01;21.30;99.90
37158;DHT22;23050;51.776;22.638;2023-08-06T04:48:26;21.40;99.90
37158;DHT22;23050;51.776;22.638;2023-08-06T04:50:52;21.50;99.90
37158;DHT22;23050;51.776;22.638;2023-08-06T04:53:17;21.60;99.90
37158;DHT22;23050;51.776;22.638;2023-08-06T04:55:43;21.80;99.90
37158;DHT22;23050;51.776;22.638;2023-08-06T04:58:09;21.90;99.90
37158;DHT22;23050;51.776;22.638;2023-08-06T05:00:35;21.90;99.90
37158;DHT22;23050;51.776;22.638;2023-08-06T05:03:00;22.10;99.90
37158;DHT22;23050;51.776;22.638;2023-08-06T05:05:28;22.20;99.90
37158;DHT22;23050;51.776;22.638;2023-08-06T05:07:55;22.30;99.90
37158;DHT22;23050;51.776;22.638;2023-08-06T05:10:21;22.40;99.90
37158;DHT22;23050;51.776;22.638;2023-08-06T05:12:49;22.80;99.90
37158;DHT22;23050;51.776;22.638;2023-08-06T05:15:14;23.40;94.50
37158;DHT22;23050;51.776;22.638;2023-08-06T05:17:40;24.10;81.70
37158;DHT22;23050;51.776;22.638;2023-08-06T05:20:05;24.60;61.70
37158;DHT22;23050;51.776;22.638;2023-08-06T05:22:31;24.90;50.00
37158;DHT22;23050;51.776;22.638;2023-08-06T05:24:56;25.20;39.70
37158;DHT22;23050;51.776;22.638;2023-08-06T05:27:22;25.70;28.80
37158;DHT22;23050;51.776;22.638;2023-08-06T05:29:47;26.30;16.80
37158;DHT22;23050;51.776;22.638;2023-08-06T05:32:13;26.00;8.60
37158;DHT22;23050;51.776;22.638;2023-08-06T05:34:38;25.90;11.30
37158;DHT22;23050;51.776;22.638;2023-08-06T05:37:04;26.00;6.90
37158;DHT22;23050;51.776;22.638;2023-08-06T05:39:29;26.20;7.50
37158;DHT22;23050;51.776;22.638;2023-08-06T05:41:55;26.10;4.90
37158;DHT22;23050;51.776;22.638;2023-08-06T05:44:21;26.20;1.30
37158;DHT22;23050;51.776;22.638;2023-08-06T05:46:46;26.10;1.00
37158;DHT22;23050;51.776;22.638;2023-08-06T05:49:12;26.50;1.00
37158;DHT22;23050;51.776;22.638;2023-08-06T05:51:39;26.80;1.00
37158;DHT22;23050;51.776;22.638;2023-08-06T05:54:04;26.70;1.00
37158;DHT22;23050;51.776;22.638;2023-08-06T05:56:30;26.50;1.00
37158;DHT22;23050;51.776;22.638;2023-08-06T05:58:55;26.90;1.00
37158;DHT22;23050;51.776;22.638;2023-08-06T06:01:20;26.80;1.00
37158;DHT22;23050;51.776;22.638;2023-08-06T06:03:46;27.00;1.00
37158;DHT22;23050;51.776;22.638;2023-08-06T06:06:11;27.00;1.00
37158;DHT22;23050;51.776;22.638;2023-08-06T06:08:37;27.10;1.00
37158;DHT22;23050;51.776;22.638;2023-08-06T06:11:02;27.60;1.00
37158;DHT22;23050;51.776;22.638;2023-08-06T06:13:28;27.60;1.00
37158;DHT22;23050;51.776;22.638;2023-08-06T06:15:54;27.50;1.00
37158;DHT22;23050;51.776;22.638;2023-08-06T06:18:19;27.60;1.00
37158;DHT22;23050;51.776;22.638;2023-08-06T06:20:45;27.40;1.00
37158;DHT22;23050;51.776;22.638;2023-08-06T06:23:10;27.10;1.00
37158;DHT22;23050;51.776;22.638;2023-08-06T06:25:36;27.00;1.00
37158;DHT22;23050;51.776;22.638;2023-08-06T06:28:01;27.60;1.00
37158;DHT22;23050;51.776;22.638;2023-08-06T06:30:27;27.90;1.00
37158;DHT22;23050;51.776;22.638;2023-08-06T06:32:52;27.80;1.00
37158;DHT22;23050;51.776;22.638;2023-08-06T06:35:18;27.80;1.00
37158;DHT22;23050;51.776;22.638;2023-08-06T06:37:43;27.70;1.00
37158;DHT22;23050;51.776;22.638;2023-08-06T06:40:09;27.60;1.00
37158;DHT22;23050;51.776;22.638;2023-08-06T06:42:34;28.00;1.00
37158;DHT22;23050;51.776;22.638;2023-08-06T06:45:00;28.70;1.00
37158;DHT22;23050;51.776;22.638;2023-08-06T06:47:25;29.20;1.00
37158;DHT22;23050;51.776;22.638;2023-08-06T06:49:51;29.10;1.00
37158;DHT22;23050;51.776;22.638;2023-08-06T06:52:16;28.80;1.00
37158;DHT22;23050;51.776;22.638;2023-08-06T06:54:42;28.20;1.00
37158;DHT22;23050;51.776;22.638;2023-08-06T06:57:07;27.90;1.00
37158;DHT22;23050;51.776;22.638;2023-08-06T06:59:33;28.10;1.00
37158;DHT22;23050;51.776;22.638;2023-08-06T07:01:58;28.20;1.00
37158;DHT22;23050;51.776;22.638;2023-08-06T07:04:24;28.40;1.00
37158;DHT22;23050;51.776;22.638;2023-08-06T07:06:49;28.20;1.00
37158;DHT22;23050;51.776;22.638;2023-08-06T07:09:15;28.30;1.00
37158;DHT22;23050;51.776;22.638;2023-08-06T07:11:40;28.60;1.00
37158;DHT22;23050;51.776;22.638;2023-08-06T07:14:08;28.90;1.00
37158;DHT22;23050;51.776;22.638;2023-08-06T07:16:34;29.60;1.00
37158;DHT22;23050;51.776;22.638;2023-08-06T07:19:00;29.20;1.00
37158;DHT22;23050;51.776;22.638;2023-08-06T07:21:25;28.70;1.00
37158;DHT22;23050;51.776;22.638;2023-08-06T07:23:51;29.20;1.00
37158;DHT22;23050;51.776;22.638;2023-08-06T07:26:16;29.40;1.00
37158;DHT22;23050;51.776;22.638;2023-08-06T07:28:42;29.40;1.00
37158;DHT22;23050;51.776;22.638;2023-08-06T07:31:08;29.80;1.00
37158;DHT22;23050;51.776;22.638;2023-08-06T07:33:33;29.80;1.00
37158;DHT22;23050;51.776;22.638;2023-08-06T07:35:59;29.90;1.00
37158;DHT22;23050;51.776;22.638;2023-08-06T07:38:24;30.40;1.00
37158;DHT22;23050;51.776;22.638;2023-08-06T07:40:50;29.90;1.00
37158;DHT22;23050;51.776;22.638;2023-08-06T07:43:16;29.70;1.00
37158;DHT22;23050;51.776;22.638;2023-08-06T07:45:42;29.90;1.00
37158;DHT22;23050;51.776;22.638;2023-08-06T07:48:07;30.30;1.00
37158;DHT22;23050;51.776;22.638;2023-08-06T07:50:33;30.50;1.00
37158;DHT22;23050;51.776;22.638;2023-08-06T07:52:58;30.10;1.00
37158;DHT22;23050;51.776;22.638;2023-08-06T07:55:24;29.90;1.00
37158;DHT22;23050;51.776;22.638;2023-08-06T07:57:50;29.80;1.00
37158;DHT22;23050;51.776;22.638;2023-08-06T08:00:15;29.90;1.00
37158;DHT22;23050;51.776;22.638;2023-08-06T08:02:41;30.00;1.00
37158;DHT22;23050;51.776;22.638;2023-08-06T08:05:06;30.50;1.00
37158;DHT22;23050;51.776;22.638;2023-08-06T08:07:33;30.70;1.00
37158;DHT22;23050;51.776;22.638;2023-08-06T08:09:59;30.80;1.00
37158;DHT22;23050;51.776;22.638;2023-08-06T08:12:24;30.30;1.00
37158;DHT22;23050;51.776;22.638;2023-08-06T08:14:50;30.00;1.00
37158;DHT22;23050;51.776;22.638;2023-08-06T08:17:15;30.00;1.00
37158;DHT22;23050;51.776;22.638;2023-08-06T08:19:41;30.40;1.00
37158;DHT22;23050;51.776;22.638;2023-08-06T08:22:06;30.10;1.00
37158;DHT22;23050;51.776;22.638;2023-08-06T08:24:32;29.70;1.00
37158;DHT22;23050;51.776;22.638;2023-08-06T08:26:57;29.60;1.00
37158;DHT22;23050;51.776;22.638;2023-08-06T08:29:23;30.20;1.00
37158;DHT22;23050;51.776;22.638;2023-08-06T08:31:49;30.40;1.00
37158;DHT22;23050;51.776;22.638;2023-08-06T08:34:15;30.60;1.00
37158;DHT22;23050;51.776;22.638;2023-08-06T08:36:41;30.20;1.00
37158;DHT22;23050;51.776;22.638;2023-08-06T08:39:07;30.70;1.00
37158;DHT22;23050;51.776;22.638;2023-08-06T08:41:32;31.10;1.00
37158;DHT22;23050;51.776;22.638;2023-08-06T08:43:58;31.00;1.00
37158;DHT22;23050;51.776;22.638;2023-08-06T08:46:26;31.10;1.00
37158;DHT22;23050;51.776;22.638;2023-08-06T08:48:55;31.80;1.00
37158;DHT22;23050;51.776;22.638;2023-08-06T08:51:21;32.40;1.00
37158;DHT22;23050;51.776;22.638;2023-08-06T08:53:47;33.50;1.00
37158;DHT22;23050;51.776;22.638;2023-08-06T08:56:12;32.80;1.00
37158;DHT22;23050;51.776;22.638;2023-08-06T08:58:38;31.80;1.00
37158;DHT22;23050;51.776;22.638;2023-08-06T09:01:04;31.60;1.00
37158;DHT22;23050;51.776;22.638;2023-08-06T09:03:29;31.60;1.00
37158;DHT22;23050;51.776;22.638;2023-08-06T09:05:56;32.20;1.00
37158;DHT22;23050;51.776;22.638;2023-08-06T09:08:24;32.50;1.00
37158;DHT22;23050;51.776;22.638;2023-08-06T09:10:52;32.10;1.00
37158;DHT22;23050;51.776;22.638;2023-08-06T09:13:18;32.00;1.00
37158;DHT22;23050;51.776;22.638;2023-08-06T09:15:45;31.90;1.00
37158;DHT22;23050;51.776;22.638;2023-08-06T09:18:11;31.90;1.00
37158;DHT22;23050;51.776;22.638;2023-08-06T09:20:37;32.00;1.00
37158;DHT22;23050;51.776;22.638;2023-08-06T09:23:07;32.10;1.00
37158;DHT22;23050;51.776;22.638;2023-08-06T09:25:32;32.10;1.00
37158;DHT22;23050;51.776;22.638;2023-08-06T09:27:58;32.00;1.00
37158;DHT22;23050;51.776;22.638;2023-08-06T09:30:30;32.10;1.00
37158;DHT22;23050;51.776;22.638;2023-08-06T09:32:59;32.00;1.00
37158;DHT22;23050;51.776;22.638;2023-08-06T09:35:24;31.60;1.00
37158;DHT22;23050;51.776;22.638;2023-08-06T09:37:50;31.60;1.00
37158;DHT22;23050;51.776;22.638;2023-08-06T09:40:28;31.50;1.00
37158;DHT22;23050;51.776;22.638;2023-08-06T09:42:54;31.80;1.00
37158;DHT22;23050;51.776;22.638;2023-08-06T09:45:20;32.30;1.00
37158;DHT22;23050;51.776;22.638;2023-08-06T09:47:47;32.10;1.00
37158;DHT22;23050;51.776;22.638;2023-08-06T09:50:17;32.30;1.00
37158;DHT22;23050;51.776;22.638;2023-08-06T09:52:43;32.20;1.00
37158;DHT22;23050;51.776;22.638;2023-08-06T09:55:10;32.20;1.00
37158;DHT22;23050;51.776;22.638;2023-08-06T09:57:36;32.80;1.00
37158;DHT22;23050;51.776;22.638;2023-08-06T10:00:02;32.90;1.00
37158;DHT22;23050;51.776;22.638;2023-08-06T10:02:27;32.80;1.00
37158;DHT22;23050;51.776;22.638;2023-08-06T10:04:54;32.70;1.00
37158;DHT22;23050;51.776;22.638;2023-08-06T10:07:20;32.40;1.00
37158;DHT22;23050;51.776;22.638;2023-08-06T10:09:47;32.30;1.00
37158;DHT22;23050;51.776;22.638;2023-08-06T10:12:13;31.80;1.00
37158;DHT22;23050;51.776;22.638;2023-08-06T10:14:39;31.50;1.00
37158;DHT22;23050;51.776;22.638;2023-08-06T10:17:06;32.00;1.00
37158;DHT22;23050;51.776;22.638;2023-08-06T10:19:32;32.10;1.00
37158;DHT22;23050;51.776;22.638;2023-08-06T10:22:14;32.50;1.00
37158;DHT22;23050;51.776;22.638;2023-08-06T10:24:56;32.30;1.00
37158;DHT22;23050;51.776;22.638;2023-08-06T10:29:47;32.30;1.00
37158;DHT22;23050;51.776;22.638;2023-08-06T10:32:14;32.20;1.00
37158;DHT22;23050;51.776;22.638;2023-08-06T10:35:00;31.90;1.00
37158;DHT22;23050;51.776;22.638;2023-08-06T10:37:34;32.00;1.00
37158;DHT22;23050;51.776;22.638;2023-08-06T10:40:00;31.50;1.00
37158;DHT22;23050;51.776;22.638;2023-08-06T10:42:27;31.40;1.00
37158;DHT22;23050;51.776;22.638;2023-08-06T10:45:11;31.10;1.00
37158;DHT22;23050;51.776;22.638;2023-08-06T10:47:38;31.00;1.00
37158;DHT22;23050;51.776;22.638;2023-08-06T10:50:07;31.10;1.00
37158;DHT22;23050;51.776;22.638;2023-08-06T10:52:33;31.20;1.00
37158;DHT22;23050;51.776;22.638;2023-08-06T10:54:58;31.50;1.00
37158;DHT22;23050;51.776;22.638;2023-08-06T10:57:24;31.60;1.00
37158;DHT22;23050;51.776;22.638;2023-08-06T10:59:49;31.90;1.00
37158;DHT22;23050;51.776;22.638;2023-08-06T11:02:16;32.10;1.00
37158;DHT22;23050;51.776;22.638;2023-08-06T11:04:41;32.40;1.00
37158;DHT22;23050;51.776;22.638;2023-08-06T11:07:07;32.20;1.00
37158;DHT22;23050;51.776;22.638;2023-08-06T11:09:32;32.30;1.00
37158;DHT22;23050;51.776;22.638;2023-08-06T11:11:58;31.90;1.00
37158;DHT22;23050;51.776;22.638;2023-08-06T11:14:23;32.10;1.00
37158;DHT22;23050;51.776;22.638;2023-08-06T11:16:49;31.90;1.00
37158;DHT22;23050;51.776;22.638;2023-08-06T11:19:15;31.60;1.00
37158;DHT22;23050;51.776;22.638;2023-08-06T11:21:42;31.30;1.00
37158;DHT22;23050;51.776;22.638;2023-08-06T11:24:12;31.30;1.00
37158;DHT22;23050;51.776;22.638;2023-08-06T11:26:37;31.10;1.00
37158;DHT22;23050;51.776;22.638;2023-08-06T11:29:05;31.50;1.00
37158;DHT22;23050;51.776;22.638;2023-08-06T11:31:31;31.80;1.00
37158;DHT22;23050;51.776;22.638;2023-08-06T11:33:56;32.10;1.00
37158;DHT22;23050;51.776;22.638;2023-08-06T11:36:36;32.40;1.00
37158;DHT22;23050;51.776;22.638;2023-08-06T11:39:04;32.30;1.00
37158;DHT22;23050;51.776;22.638;2023-08-06T11:41:33;32.30;1.00
37158;DHT22;23050;51.776;22.638;2023-08-06T11:43:59;32.20;1.00
37158;DHT22;23050;51.776;22.638;2023-08-06T11:46:24;32.10;1.00
37158;DHT22;23050;51.776;22.638;2023-08-06T11:48:54;31.70;1.00
37158;DHT22;23050;51.776;22.638;2023-08-06T11:51:23;31.90;1.00
37158;DHT22;23050;51.776;22.638;2023-08-06T11:53:55;31.70;1.00
37158;DHT22;23050;51.776;22.638;2023-08-06T11:56:20;31.50;1.00
37158;DHT22;23050;51.776;22.638;2023-08-06T11:58:46;31.30;1.00
37158;DHT22;23050;51.776;22.638;2023-08-06T12:01:11;30.80;1.00
37158;DHT22;23050;51.776;22.638;2023-08-06T12:03:39;30.80;1.00
37158;DHT22;23050;51.776;22.638;2023-08-06T12:06:04;30.40;1.00
37158;DHT22;23050;51.776;22.638;2023-08-06T12:08:30;30.30;1.00
37158;DHT22;23050;51.776;22.638;2023-08-06T12:10:55;30.30;1.00
37158;DHT22;23050;51.776;22.638;2023-08-06T12:13:21;30.20;1.00
37158;DHT22;23050;51.776;22.638;2023-08-06T12:15:46;30.40;1.00
37158;DHT22;23050;51.776;22.638;2023-08-06T12:18:11;30.40;1.00
37158;DHT22;23050;51.776;22.638;2023-08-06T12:20:37;30.40;1.00
37158;DHT22;23050;51.776;22.638;2023-08-06T12:23:04;31.00;1.00
37158;DHT22;23050;51.776;22.638;2023-08-06T12:25:29;31.40;1.00
37158;DHT22;23050;51.776;22.638;2023-08-06T12:27:55;31.70;1.00
37158;DHT22;23050;51.776;22.638;2023-08-06T12:30:20;31.30;1.00
37158;DHT22;23050;51.776;22.638;2023-08-06T12:32:46;31.10;1.00
37158;DHT22;23050;51.776;22.638;2023-08-06T12:35:11;31.00;1.00
37158;DHT22;23050;51.776;22.638;2023-08-06T12:37:37;30.50;1.00
37158;DHT22;23050;51.776;22.638;2023-08-06T12:40:05;30.20;1.00
37158;DHT22;23050;51.776;22.638;2023-08-06T12:42:31;30.00;1.00
37158;DHT22;23050;51.776;22.638;2023-08-06T12:44:57;30.10;1.00
37158;DHT22;23050;51.776;22.638;2023-08-06T12:47:22;30.00;1.00
37158;DHT22;23050;51.776;22.638;2023-08-06T12:49:48;30.20;1.00
37158;DHT22;23050;51.776;22.638;2023-08-06T12:52:14;30.40;1.00
37158;DHT22;23050;51.776;22.638;2023-08-06T12:54:40;30.40;1.00
37158;DHT22;23050;51.776;22.638;2023-08-06T12:57:06;30.20;1.00
37158;DHT22;23050;51.776;22.638;2023-08-06T12:59:32;30.20;1.00
37158;DHT22;23050;51.776;22.638;2023-08-06T13:01:58;30.00;1.00
37158;DHT22;23050;51.776;22.638;2023-08-06T13:04:24;29.80;1.00
37158;DHT22;23050;51.776;22.638;2023-08-06T13:06:51;29.60;1.00
37158;DHT22;23050;51.776;22.638;2023-08-06T13:09:17;29.40;1.00
37158;DHT22;23050;51.776;22.638;2023-08-06T13:11:42;29.30;1.00
37158;DHT22;23050;51.776;22.638;2023-08-06T13:14:11;29.20;1.00
37158;DHT22;23050;51.776;22.638;2023-08-06T13:16:38;29.10;1.00
37158;DHT22;23050;51.776;22.638;2023-08-06T13:19:04;29.10;1.00
37158;DHT22;23050;51.776;22.638;2023-08-06T13:21:33;29.10;1.00
37158;DHT22;23050;51.776;22.638;2023-08-06T13:24:00;29.10;1.00
37158;DHT22;23050;51.776;22.638;2023-08-06T13:26:26;29.00;1.00
37158;DHT22;23050;51.776;22.638;2023-08-06T13:28:52;28.90;1.00
37158;DHT22;23050;51.776;22.638;2023-08-06T13:31:18;28.80;1.00
37158;DHT22;23050;51.776;22.638;2023-08-06T13:33:43;28.30;1.00
37158;DHT22;23050;51.776;22.638;2023-08-06T13:36:09;27.50;1.00
37158;DHT22;23050;51.776;22.638;2023-08-06T13:38:34;26.60;1.00
37158;DHT22;23050;51.776;22.638;2023-08-06T13:41:01;25.80;11.50
37158;DHT22;23050;51.776;22.638;2023-08-06T13:43:26;25.10;53.60
37158;DHT22;23050;51.776;22.638;2023-08-06T13:45:52;24.80;55.60
37158;DHT22;23050;51.776;22.638;2023-08-06T13:48:18;25.00;38.40
37158;DHT22;23050;51.776;22.638;2023-08-06T13:50:43;25.20;39.70
37158;DHT22;23050;51.776;22.638;2023-08-06T13:53:10;25.30;38.50
37158;DHT22;23050;51.776;22.638;2023-08-06T13:55:35;25.40;36.50
37158;DHT22;23050;51.776;22.638;2023-08-06T13:58:01;25.50;33.60
37158;DHT22;23050;51.776;22.638;2023-08-06T14:00:26;25.40;33.80
37158;DHT22;23050;51.776;22.638;2023-08-06T14:02:51;25.40;28.90
37158;DHT22;23050;51.776;22.638;2023-08-06T14:05:17;25.30;37.80
37158;DHT22;23050;51.776;22.638;2023-08-06T14:07:42;24.90;70.10
37158;DHT22;23050;51.776;22.638;2023-08-06T14:10:08;23.70;99.90
37158;DHT22;23050;51.776;22.638;2023-08-06T14:12:34;22.70;99.90
37158;DHT22;23050;51.776;22.638;2023-08-06T14:15:00;21.20;99.90
37158;DHT22;23050;51.776;22.638;2023-08-06T14:17:25;20.50;99.90
37158;DHT22;23050;51.776;22.638;2023-08-06T14:19:51;20.20;99.90
37158;DHT22;23050;51.776;22.638;2023-08-06T14:22:16;20.00;99.90
37158;DHT22;23050;51.776;22.638;2023-08-06T14:24:42;20.00;1.00
37158;DHT22;23050;51.776;22.638;2023-08-06T14:27:07;20.00;1.00
37158;DHT22;23050;51.776;22.638;2023-08-06T14:29:33;20.10;1.00
37158;DHT22;23050;51.776;22.638;2023-08-06T14:31:58;20.20;1.00
37158;DHT22;23050;51.776;22.638;2023-08-06T14:34:23;20.20;1.00
37158;DHT22;23050;51.776;22.638;2023-08-06T14:36:49;20.30;1.00
37158;DHT22;23050;51.776;22.638;2023-08-06T14:39:15;20.30;1.00
37158;DHT22;23050;51.776;22.638;2023-08-06T14:41:40;20.40;1.00
37158;DHT22;23050;51.776;22.638;2023-08-06T14:44:06;20.40;32.60
37158;DHT22;23050;51.776;22.638;2023-08-06T14:46:32;20.40;23.90
37158;DHT22;23050;51.776;22.638;2023-08-06T14:48:58;20.50;36.50
37158;DHT22;23050;51.776;22.638;2023-08-06T14:51:23;20.50;27.10
37158;DHT22;23050;51.776;22.638;2023-08-06T14:53:49;20.50;41.00
37158;DHT22;23050;51.776;22.638;2023-08-06T14:56:15;20.60;62.40
37158;DHT22;23050;51.776;22.638;2023-08-06T14:58:40;20.60;50.60
37158;DHT22;23050;51.776;22.638;2023-08-06T15:01:07;20.70;91.50
37158;DHT22;23050;51.776;22.638;2023-08-06T15:03:32;20.70;94.80
37158;DHT22;23050;51.776;22.638;2023-08-06T15:05:58;20.70;99.90
37158;DHT22;23050;51.776;22.638;2023-08-06T15:08:24;20.70;99.90
37158;DHT22;23050;51.776;22.638;2023-08-06T15:10:53;20.70;99.90
37158;DHT22;23050;51.776;22.638;2023-08-06T15:13:18;20.80;99.90
37158;DHT22;23050;51.776;22.638;2023-08-06T15:15:46;20.80;99.90
37158;DHT22;23050;51.776;22.638;2023-08-06T15:18:11;20.90;99.90
37158;DHT22;23050;51.776;22.638;2023-08-06T15:20:37;21.00;99.90